Home   Weather   India   Fatehpur   Past weeks
Flag for India

Past Weather in Fatehpur, Uttar Pradesh, India — Yesterday and Last 2 Weeks

Currently: 61 °F. Fog. (Weather station: Lucknow / Amausi, India). See more current weather

Past Weather in Fatehpur — Graph

°F

Fatehpur Temperature Yesterday

Maximum temperature yesterday: 88 °F (at 12:30 pm)
Minimum temperature yesterday: 59 °F (at 4:30 am)
Average temperature yesterday: 74 °F

High & Low Weather Summary for the Past Weeks

 TemperatureHumidityPressure
High91 °F (Feb 25, 2:30 pm)94% (Feb 19, 7:00 am)30.15 "Hg (Feb 19, 7:00 am)
Low55 °F (Feb 19, 7:00 am)26% (Feb 28, 3:00 pm)29.68 "Hg (Feb 26, 3:30 am)
Average72 °F64%29.88 "Hg
* Reported Feb 19 7:00 am — Mar 6 6:30 am, Fatehpur. Weather by CustomWeather, © 2021

Note: Actual official high and low records may vary slightly from our data, if they occured in-between our weather recording intervals... More about our weather records

Fatehpur Weather History for the Previous 24 Hours

Scroll right to see more
 ConditionsComfort  
Time TempWeatherWind HumidityBarometerVisibility
6:30 am
Sat, Mar 6
61 °FFog.5 mph83%29.80 "Hg2 mi
6:00 am61 °FFog.7 mph83%29.80 "Hg2 mi
5:30 am61 °FHaze.6 mph83%29.80 "Hg2 mi
5:00 am61 °FHaze.6 mph77%29.80 "Hg2 mi
4:00 am61 °FHaze.6 mph77%29.80 "Hg2 mi
3:30 am63 °FHaze.6 mph77%29.80 "Hg2 mi
3:00 am63 °FHaze.5 mph77%29.80 "Hg2 mi
2:30 am63 °FHaze.5 mph73%29.80 "Hg2 mi
2:00 am64 °FHaze.5 mph73%29.80 "Hg2 mi
1:30 am64 °FHaze.5 mph73%29.83 "Hg2 mi
1:00 am64 °FHaze.5 mph73%29.83 "Hg2 mi
12:30 am66 °FHaze.6 mph68%29.83 "Hg2 mi
12:00 am66 °FHaze.6 mph68%29.83 "Hg2 mi
11:30 pm
Fri, Mar 5
68 °FHaze.6 mph69%29.83 "Hg2 mi
11:00 pm68 °FHaze.6 mph69%29.83 "Hg2 mi
10:30 pm68 °FHaze.5 mph69%29.83 "Hg2 mi
10:00 pm70 °FHaze.7 mph64%29.83 "Hg2 mi
9:30 pm70 °FHaze.7 mph64%29.83 "Hg2 mi
9:00 pm72 °FHaze.5 mph61%29.83 "Hg2 mi
8:30 pm73 °FHaze.3 mph57%29.83 "Hg2 mi
8:00 pm73 °FHaze.5 mph57%29.80 "Hg2 mi
7:30 pm77 °FHaze.3 mph54%29.80 "Hg2 mi
7:00 pm79 °FHaze.5 mph51%29.80 "Hg2 mi
6:00 pm84 °FHaze.5 mph40%29.77 "Hg3 mi
5:30 pm86 °FHaze.7 mph35%29.77 "Hg3 mi
5:00 pm88 °FHaze.8 mph35%29.77 "Hg3 mi
4:30 pm88 °FHaze.9 mph33%29.77 "Hg3 mi
4:00 pm88 °FHaze.9 mph33%29.77 "Hg3 mi
3:30 pm88 °FHaze.12 mph33%29.77 "Hg3 mi
3:00 pm88 °FHaze.9 mph33%29.77 "Hg3 mi
2:30 pm88 °FHaze.14 mph33%29.80 "Hg3 mi
2:00 pm88 °FHaze.12 mph38%29.80 "Hg3 mi
1:30 pm88 °FHaze.12 mph43%29.80 "Hg3 mi
1:00 pm86 °FHaze.9 mph43%29.83 "Hg3 mi
12:30 pm88 °FHaze.9 mph35%29.83 "Hg3 mi
12:00 pm86 °FHaze.6 mph38%29.86 "Hg3 mi
11:30 am86 °FHaze.7 mph40%29.86 "Hg3 mi
11:00 am84 °FHaze.7 mph40%29.86 "Hg3 mi
10:30 am82 °FHaze.6 mph42%29.89 "Hg2 mi
10:00 am79 °FHaze.6 mph48%29.89 "Hg2 mi
9:30 am75 °FHaze.5 mph50%29.86 "Hg2 mi
9:00 am73 °FHaze.6 mph57%29.86 "Hg2 mi
8:30 am70 °FHaze.6 mph64%29.86 "Hg2 mi
8:00 am66 °FFog.No wind78%29.86 "Hg2 mi
Weather by CustomWeather, © 2021

See weather overview